createdAt,value
2018-09-21T00:01:36.920Z,20.80
2018-09-21T00:04:10.653Z,20.72
2018-09-21T00:06:40.346Z,20.69
2018-09-21T00:09:10.914Z,20.77
2018-09-21T00:11:40.046Z,20.83
2018-09-21T00:14:09.411Z,20.87
2018-09-21T00:16:38.851Z,20.86
2018-09-21T00:19:07.600Z,20.89
2018-09-21T00:21:36.279Z,20.90
2018-09-21T00:24:05.329Z,20.92
2018-09-21T00:26:34.043Z,20.95
2018-09-21T00:29:03.082Z,20.96
2018-09-21T00:31:31.808Z,20.97
2018-09-21T00:34:00.578Z,20.94
2018-09-21T00:36:29.704Z,20.96
2018-09-21T00:38:58.441Z,20.96
2018-09-21T00:41:27.172Z,20.96
2018-09-21T00:43:56.256Z,20.95
2018-09-21T00:46:25.779Z,20.92
2018-09-21T00:48:54.966Z,20.91
2018-09-21T00:51:23.784Z,20.90
2018-09-21T00:53:52.711Z,20.88
2018-09-21T00:56:21.466Z,20.86
2018-09-21T00:58:50.417Z,20.85
2018-09-21T01:01:19.753Z,20.82
2018-09-21T01:03:48.987Z,20.80
2018-09-21T01:06:18.166Z,20.80
2018-09-21T01:08:47.251Z,20.74
2018-09-21T01:11:16.044Z,20.71
2018-09-21T01:13:45.214Z,20.60
2018-09-21T01:16:14.279Z,20.55
2018-09-21T01:18:43.124Z,20.49
2018-09-21T01:21:12.191Z,20.44
2018-09-21T01:23:40.919Z,20.42
2018-09-21T01:26:10.070Z,20.44
2018-09-21T01:28:38.935Z,20.48
2018-09-21T01:31:07.699Z,20.46
2018-09-21T01:33:36.460Z,20.46
2018-09-21T01:36:05.321Z,20.48
2018-09-21T01:38:34.157Z,20.47
2018-09-21T01:41:02.969Z,20.46
2018-09-21T01:43:31.735Z,20.48
2018-09-21T01:46:00.550Z,20.46
2018-09-21T01:48:29.599Z,20.35
2018-09-21T01:50:58.943Z,20.35
2018-09-21T01:53:27.639Z,20.35
2018-09-21T01:55:56.455Z,20.32
2018-09-21T01:58:25.491Z,20.29
2018-09-21T02:00:54.875Z,20.24
2018-09-21T02:03:23.604Z,20.16
2018-09-21T02:05:53.191Z,20.10
2018-09-21T02:08:21.972Z,20.08
2018-09-21T02:10:51.004Z,20.01
2018-09-21T02:13:19.782Z,19.97
2018-09-21T02:15:48.658Z,19.92
2018-09-21T02:18:17.400Z,19.85
2018-09-21T02:20:46.514Z,19.86
2018-09-21T02:23:15.255Z,19.83
2018-09-21T02:25:44.114Z,19.78
2018-09-21T02:28:13.186Z,19.77
2018-09-21T02:30:42.289Z,19.75
2018-09-21T02:33:11.050Z,19.75
2018-09-21T02:35:39.736Z,19.72
2018-09-21T02:38:08.537Z,19.79
2018-09-21T02:40:37.383Z,19.87
2018-09-21T02:43:06.483Z,19.91
2018-09-21T02:45:35.264Z,19.92
2018-09-21T02:48:04.312Z,19.91
2018-09-21T02:50:33.376Z,19.87
2018-09-21T02:53:02.171Z,19.89
2018-09-21T02:55:31.303Z,19.85
2018-09-21T02:58:00.665Z,19.86
2018-09-21T03:00:29.805Z,19.81
2018-09-21T03:02:59.199Z,19.76
2018-09-21T03:05:28.830Z,19.79
2018-09-21T03:07:57.901Z,19.84
2018-09-21T03:10:26.968Z,19.88
2018-09-21T03:12:55.758Z,19.89
2018-09-21T03:15:24.703Z,19.85
2018-09-21T03:17:53.517Z,19.85
2018-09-21T03:20:22.641Z,19.87
2018-09-21T03:22:51.764Z,19.87
2018-09-21T03:25:20.884Z,19.86
2018-09-21T03:27:49.636Z,19.83
2018-09-21T03:30:18.685Z,19.78
2018-09-21T03:32:47.737Z,19.77
2018-09-21T03:35:16.606Z,19.72
2018-09-21T03:37:45.358Z,19.67
2018-09-21T03:40:14.328Z,19.64
2018-09-21T03:42:43.506Z,19.63
2018-09-21T03:45:12.321Z,19.61
2018-09-21T03:47:41.339Z,19.61
2018-09-21T03:50:10.143Z,19.58
2018-09-21T03:52:39.058Z,19.61
2018-09-21T03:55:08.491Z,19.64
2018-09-21T03:57:37.237Z,19.65
2018-09-21T04:00:06.924Z,19.65
2018-09-21T04:02:36.010Z,19.66
2018-09-21T04:05:06.020Z,19.67
2018-09-21T04:07:35.326Z,19.64
2018-09-21T04:10:04.127Z,19.64
2018-09-21T04:12:33.281Z,19.62
2018-09-21T04:15:02.242Z,19.67
2018-09-21T04:17:31.403Z,19.69
2018-09-21T04:20:00.391Z,19.72
2018-09-21T04:22:29.075Z,19.72
2018-09-21T04:24:58.278Z,19.69
2018-09-21T04:27:27.798Z,19.67
2018-09-21T04:29:56.593Z,19.66
2018-09-21T04:32:25.367Z,19.64
2018-09-21T04:34:54.152Z,19.64
2018-09-21T04:37:23.468Z,19.62
2018-09-21T04:39:52.270Z,19.67
2018-09-21T04:42:21.105Z,19.73
2018-09-21T04:44:50.197Z,19.78
2018-09-21T04:47:19.298Z,19.78
2018-09-21T04:49:48.013Z,19.81
2018-09-21T04:52:16.752Z,19.81
2018-09-21T04:54:45.538Z,19.80
2018-09-21T04:57:14.708Z,19.79
2018-09-21T04:59:43.438Z,19.84
2018-09-21T05:02:12.830Z,19.83
2018-09-21T05:04:41.605Z,19.84
2018-09-21T05:07:10.319Z,19.83
2018-09-21T05:09:39.123Z,19.88
2018-09-21T05:12:08.127Z,19.87
2018-09-21T05:14:36.905Z,19.88
2018-09-21T05:17:05.958Z,19.92
2018-09-21T05:19:34.748Z,19.97
2018-09-21T05:22:03.840Z,20.00
2018-09-21T05:24:32.587Z,20.04
2018-09-21T05:27:01.498Z,20.07
2018-09-21T05:29:30.260Z,20.08
2018-09-21T05:31:59.537Z,20.11
2018-09-21T05:34:28.406Z,20.11
2018-09-21T05:36:57.102Z,20.14
2018-09-21T05:39:26.168Z,20.15
2018-09-21T05:41:55.396Z,20.19
2018-09-21T05:44:24.214Z,20.25
2018-09-21T05:46:53.072Z,20.30
2018-09-21T05:49:22.530Z,20.33
2018-09-21T05:51:51.735Z,20.39
2018-09-21T05:54:20.810Z,20.42
2018-09-21T05:56:49.662Z,20.46
2018-09-21T05:59:18.693Z,20.51
2018-09-21T06:01:48.134Z,20.54
2018-09-21T06:04:17.761Z,20.64
2018-09-21T06:06:46.935Z,20.69
2018-09-21T06:09:15.954Z,20.78
2018-09-21T06:11:45.048Z,20.83
2018-09-21T06:14:14.618Z,20.91
2018-09-21T06:16:43.520Z,20.98
2018-09-21T06:19:12.537Z,21.01
2018-09-21T06:21:41.527Z,21.07
2018-09-21T06:24:10.518Z,21.12
2018-09-21T06:26:39.703Z,21.17
2018-09-21T06:29:08.866Z,21.25
2018-09-21T06:31:38.343Z,21.30
2018-09-21T06:34:07.202Z,21.37
2018-09-21T06:36:36.000Z,21.45
2018-09-21T06:39:07.279Z,21.53
2018-09-21T06:41:36.511Z,21.60
2018-09-21T06:44:05.755Z,21.67
2018-09-21T06:46:34.843Z,21.77
2018-09-21T06:49:04.261Z,21.81
2018-09-21T06:51:33.396Z,21.87
2018-09-21T06:54:02.320Z,21.96
2018-09-21T06:56:31.340Z,22.05
2018-09-21T06:59:00.094Z,22.17
2018-09-21T07:01:28.894Z,22.31
2018-09-21T07:03:57.653Z,22.55
2018-09-21T07:06:26.830Z,22.72
2018-09-21T07:08:55.652Z,22.83
2018-09-21T07:11:24.651Z,22.90
2018-09-21T07:13:53.720Z,22.92
2018-09-21T07:16:22.793Z,22.98
2018-09-21T07:18:51.618Z,23.00
2018-09-21T07:21:20.359Z,22.97
2018-09-21T07:23:49.187Z,22.95
2018-09-21T07:26:17.902Z,22.90
2018-09-21T07:28:47.086Z,22.89
2018-09-21T07:31:15.836Z,23.00
2018-09-21T07:33:44.541Z,23.04
2018-09-21T07:36:13.436Z,23.01
2018-09-21T07:38:42.554Z,23.00
2018-09-21T07:41:11.624Z,22.95
2018-09-21T07:43:40.515Z,22.93
2018-09-21T07:46:09.917Z,22.92
2018-09-21T07:48:38.714Z,23.00
2018-09-21T07:51:07.798Z,23.12
2018-09-21T07:53:36.559Z,23.31
2018-09-21T07:56:05.340Z,23.50
2018-09-21T07:58:34.492Z,23.72
2018-09-21T08:01:03.267Z,23.91
2018-09-21T08:03:32.166Z,24.11
2018-09-21T08:06:00.992Z,24.16
2018-09-21T08:08:29.753Z,24.25
2018-09-21T08:10:58.713Z,24.38
2018-09-21T08:13:27.831Z,24.41
2018-09-21T08:15:56.743Z,24.44
2018-09-21T08:18:26.015Z,24.51
2018-09-21T08:20:55.150Z,24.62
2018-09-21T08:23:24.011Z,24.75
2018-09-21T08:25:52.844Z,24.79
2018-09-21T08:28:23.052Z,24.88
2018-09-21T08:30:51.864Z,25.01
2018-09-21T08:33:21.053Z,25.06
2018-09-21T08:35:49.870Z,25.17
2018-09-21T08:38:18.635Z,25.29
2018-09-21T08:40:47.542Z,25.48
2018-09-21T08:43:16.543Z,25.68
2018-09-21T08:45:45.451Z,25.80
2018-09-21T08:48:14.263Z,25.94
2018-09-21T08:50:43.207Z,26.09
2018-09-21T08:53:12.213Z,26.22
2018-09-21T08:55:41.386Z,26.46
2018-09-21T08:58:10.171Z,26.56
2018-09-21T09:00:39.707Z,26.66
2018-09-21T09:03:08.539Z,26.51
2018-09-21T09:05:37.332Z,26.49
2018-09-21T09:08:06.079Z,26.52
2018-09-21T09:10:34.802Z,26.55
2018-09-21T09:13:04.006Z,26.62
2018-09-21T09:15:33.329Z,26.56
2018-09-21T09:18:02.159Z,26.61
2018-09-21T09:20:31.159Z,26.53
2018-09-21T09:23:00.289Z,26.63
2018-09-21T09:25:29.027Z,26.65
2018-09-21T09:27:57.882Z,26.66
2018-09-21T09:30:27.059Z,26.65
2018-09-21T09:32:55.997Z,26.73
2018-09-21T09:35:25.035Z,26.68
2018-09-21T09:37:54.145Z,26.66
2018-09-21T09:40:23.555Z,26.66
2018-09-21T09:42:52.706Z,26.73
2018-09-21T09:45:21.672Z,26.80
2018-09-21T09:47:50.830Z,26.89
2018-09-21T09:50:19.982Z,26.94
2018-09-21T09:52:48.854Z,26.97
2018-09-21T09:55:18.125Z,26.86
2018-09-21T09:57:47.165Z,26.84
2018-09-21T10:00:20.109Z,26.88
2018-09-21T10:02:49.169Z,26.92
2018-09-21T10:05:17.943Z,26.97
2018-09-21T10:07:46.792Z,27.07
2018-09-21T10:10:15.590Z,27.02
2018-09-21T10:12:44.402Z,27.02
2018-09-21T10:15:13.436Z,27.11
2018-09-21T10:17:42.507Z,27.24
2018-09-21T10:20:11.771Z,27.30
2018-09-21T10:22:40.598Z,27.50
2018-09-21T10:25:09.752Z,27.66
2018-09-21T10:27:38.721Z,27.86
2018-09-21T10:30:07.411Z,28.04
2018-09-21T10:32:36.852Z,28.01
2018-09-21T10:35:05.956Z,28.01
2018-09-21T10:37:34.757Z,28.09
2018-09-21T10:40:03.588Z,28.18
2018-09-21T10:42:32.610Z,28.25
2018-09-21T10:45:01.699Z,28.26
2018-09-21T10:47:30.524Z,28.42
2018-09-21T10:49:59.791Z,28.56
2018-09-21T10:52:28.610Z,28.58
2018-09-21T10:54:57.965Z,28.58
2018-09-21T10:57:26.798Z,28.56
2018-09-21T10:59:55.663Z,28.49
2018-09-21T11:02:24.468Z,28.38
2018-09-21T11:04:55.226Z,28.33
2018-09-21T11:07:24.390Z,28.33
2018-09-21T11:09:53.478Z,28.34
2018-09-21T11:12:22.299Z,28.33
2018-09-21T11:14:51.668Z,28.35
2018-09-21T11:17:20.643Z,28.45
2018-09-21T11:19:50.320Z,28.61
2018-09-21T11:22:19.153Z,28.69
2018-09-21T11:24:48.369Z,28.76
2018-09-21T11:27:17.287Z,28.93
2018-09-21T11:29:46.185Z,29.10
2018-09-21T11:32:15.003Z,29.28
2018-09-21T11:34:44.202Z,29.48
2018-09-21T11:37:13.149Z,29.44
2018-09-21T11:39:42.235Z,29.60
2018-09-21T11:42:11.358Z,29.78
2018-09-21T11:44:40.133Z,29.84
2018-09-21T11:47:09.600Z,29.98
2018-09-21T11:49:38.255Z,30.09
2018-09-21T11:52:07.326Z,30.19
2018-09-21T11:54:36.071Z,30.18
2018-09-21T11:57:05.092Z,30.33
2018-09-21T11:59:33.921Z,30.43
2018-09-21T12:02:02.830Z,31.09
2018-09-21T12:04:31.597Z,31.31
2018-09-21T12:07:00.971Z,31.81
2018-09-21T12:09:29.744Z,31.60
2018-09-21T12:11:58.880Z,30.90
2018-09-21T12:14:27.698Z,30.35
2018-09-21T12:16:56.476Z,30.20
2018-09-21T12:19:25.350Z,30.13
2018-09-21T12:21:54.588Z,30.55
2018-09-21T12:24:23.630Z,30.75
2018-09-21T12:26:52.784Z,30.89
2018-09-21T12:29:22.037Z,30.88
2018-09-21T12:31:51.157Z,30.99
2018-09-21T12:34:20.027Z,30.67
2018-09-21T12:36:49.119Z,30.22
2018-09-21T12:39:18.032Z,29.81
2018-09-21T12:41:47.294Z,29.58
2018-09-21T12:44:17.850Z,29.33
2018-09-21T12:46:47.773Z,29.16
2018-09-21T12:49:16.540Z,29.05
2018-09-21T12:51:45.312Z,29.01
2018-09-21T12:54:14.744Z,28.93
2018-09-21T12:56:44.467Z,28.88
2018-09-21T12:59:13.183Z,28.76
2018-09-21T13:01:42.433Z,28.68
2018-09-21T13:04:11.953Z,28.58
2018-09-21T13:06:41.045Z,28.45
2018-09-21T13:09:09.921Z,28.40
2018-09-21T13:11:39.118Z,28.35
2018-09-21T13:14:08.121Z,28.10
2018-09-21T13:16:36.919Z,27.99
2018-09-21T13:19:06.025Z,28.03
2018-09-21T13:21:36.525Z,27.93
2018-09-21T13:24:06.298Z,27.86
2018-09-21T13:26:35.402Z,27.81
2018-09-21T13:29:04.541Z,27.74
2018-09-21T13:31:36.275Z,27.69
2018-09-21T13:34:05.091Z,27.59
2018-09-21T13:36:33.918Z,27.57
2018-09-21T13:39:02.960Z,27.53
2018-09-21T13:41:31.727Z,27.50
2018-09-21T13:44:00.561Z,27.49
2018-09-21T13:46:29.344Z,27.43
2018-09-21T13:48:58.134Z,27.42
2018-09-21T13:51:26.943Z,27.35
2018-09-21T13:53:57.359Z,27.30
2018-09-21T13:56:27.330Z,27.24
2018-09-21T13:58:56.633Z,27.20
2018-09-21T14:01:26.841Z,27.19
2018-09-21T14:03:56.266Z,27.14
2018-09-21T14:06:25.175Z,27.14
2018-09-21T14:08:54.156Z,27.15
2018-09-21T14:11:22.940Z,27.15
2018-09-21T14:13:52.157Z,27.13
2018-09-21T14:16:21.165Z,27.11
2018-09-21T14:18:50.015Z,27.10
2018-09-21T14:21:18.897Z,27.08
2018-09-21T14:23:48.328Z,27.07
2018-09-21T14:26:17.365Z,27.02
2018-09-21T14:28:46.392Z,26.99
2018-09-21T14:31:15.126Z,26.94
2018-09-21T14:33:43.936Z,26.94
2018-09-21T14:36:13.151Z,26.93
2018-09-21T14:38:42.242Z,26.89
2018-09-21T14:41:11.279Z,26.73
2018-09-21T14:43:39.988Z,26.12
2018-09-21T14:46:16.308Z,25.70
2018-09-21T14:48:48.846Z,25.17
2018-09-21T14:51:18.506Z,24.80
2018-09-21T14:53:47.353Z,24.39
2018-09-21T14:56:24.477Z,23.94
2018-09-21T14:59:00.321Z,23.50
2018-09-21T15:01:35.112Z,23.24
2018-09-21T15:04:04.424Z,22.86
2018-09-21T15:06:33.783Z,22.49
2018-09-21T15:09:02.519Z,21.91
2018-09-21T15:11:31.486Z,21.71
2018-09-21T15:14:00.829Z,21.45
2018-09-21T15:16:29.693Z,21.29
2018-09-21T15:18:58.799Z,21.19
2018-09-21T15:21:27.990Z,21.10
2018-09-21T15:23:57.409Z,20.91
2018-09-21T15:26:26.323Z,20.80
2018-09-21T15:28:55.740Z,20.76
2018-09-21T15:31:24.824Z,20.59
2018-09-21T15:33:53.583Z,20.54
2018-09-21T15:36:22.611Z,20.58
2018-09-21T15:38:52.319Z,20.64
2018-09-21T15:41:21.293Z,20.71
2018-09-21T15:43:50.147Z,20.71
2018-09-21T15:46:19.339Z,20.70
2018-09-21T15:48:49.014Z,20.58
2018-09-21T15:51:18.167Z,20.39
2018-09-21T15:53:47.087Z,20.04
2018-09-21T15:56:16.306Z,19.86
2018-09-21T15:58:45.561Z,19.67
2018-09-21T16:01:14.994Z,19.55
2018-09-21T16:03:49.747Z,19.39
2018-09-21T16:06:19.294Z,19.32
2018-09-21T16:08:49.323Z,19.28
2018-09-21T16:11:19.424Z,19.09
2018-09-21T16:13:52.200Z,18.93
2018-09-21T16:16:21.309Z,18.84
2018-09-21T16:18:50.272Z,18.81
2018-09-21T16:21:19.222Z,18.54
2018-09-21T16:23:48.118Z,18.45
2018-09-21T16:26:17.621Z,18.51
2018-09-21T16:28:46.526Z,18.54
2018-09-21T16:31:15.396Z,18.51
2018-09-21T16:33:44.237Z,18.44
2018-09-21T16:36:13.022Z,18.28
2018-09-21T16:38:42.578Z,17.95
2018-09-21T16:41:11.673Z,17.82
2018-09-21T16:43:41.430Z,17.81
2018-09-21T16:46:10.596Z,17.93
2018-09-21T16:48:39.434Z,17.92
2018-09-21T16:51:08.203Z,18.02
2018-09-21T16:53:37.004Z,18.11
2018-09-21T16:56:05.879Z,18.15
2018-09-21T16:58:34.637Z,18.14
2018-09-21T17:01:03.859Z,18.14
2018-09-21T17:03:32.865Z,18.13
2018-09-21T17:06:01.889Z,18.12
2018-09-21T17:08:30.854Z,18.14
2018-09-21T17:10:59.808Z,18.16
2018-09-21T17:13:29.131Z,18.16
2018-09-21T17:15:58.547Z,18.11
2018-09-21T17:18:27.551Z,18.11
2018-09-21T17:20:56.794Z,17.98
2018-09-21T17:23:25.725Z,17.89
2018-09-21T17:25:54.794Z,17.57
2018-09-21T17:28:24.787Z,17.40
2018-09-21T17:30:54.729Z,17.22
2018-09-21T17:33:23.710Z,17.07
2018-09-21T17:35:52.829Z,16.89
2018-09-21T17:38:21.896Z,16.66
2018-09-21T17:40:50.689Z,16.52
2018-09-21T17:43:19.506Z,16.42
2018-09-21T17:45:48.629Z,16.37
2018-09-21T17:48:18.172Z,16.43
2018-09-21T17:50:47.000Z,16.35
2018-09-21T17:53:15.773Z,16.20
2018-09-21T17:55:44.529Z,16.07
2018-09-21T17:58:13.588Z,15.95
2018-09-21T18:00:43.362Z,15.97
2018-09-21T18:03:12.208Z,15.92
2018-09-21T18:05:41.039Z,15.83
2018-09-21T18:08:09.852Z,15.85
2018-09-21T18:10:38.763Z,15.96
2018-09-21T18:13:07.801Z,15.91
2018-09-21T18:15:37.495Z,15.86
2018-09-21T18:18:06.960Z,15.83
2018-09-21T18:20:35.913Z,15.80
2018-09-21T18:23:06.955Z,15.83
2018-09-21T18:25:36.204Z,15.90
2018-09-21T18:28:05.989Z,15.87
2018-09-21T18:30:35.002Z,15.84
2018-09-21T18:33:03.953Z,15.82
2018-09-21T18:35:33.601Z,15.80
2018-09-21T18:38:04.553Z,15.71
2018-09-21T18:40:33.814Z,15.66
2018-09-21T18:43:03.319Z,15.67
2018-09-21T18:45:32.545Z,15.61
2018-09-21T18:48:01.727Z,15.54
2018-09-21T18:50:31.519Z,15.45
2018-09-21T18:53:00.770Z,15.39
2018-09-21T18:55:31.725Z,15.41
2018-09-21T18:58:02.232Z,15.36
2018-09-21T19:00:32.354Z,15.39
2018-09-21T19:03:03.090Z,15.36
2018-09-21T19:05:32.910Z,15.27
2018-09-21T19:08:02.859Z,15.23
2018-09-21T19:10:31.950Z,15.27
2018-09-21T19:13:01.509Z,15.29
2018-09-21T19:15:30.458Z,15.28
2018-09-21T19:17:59.549Z,15.28
2018-09-21T19:20:28.591Z,15.26
2018-09-21T19:22:57.486Z,15.33
2018-09-21T19:25:26.471Z,15.34
2018-09-21T19:27:56.816Z,15.31
2018-09-21T19:30:26.035Z,15.31
2018-09-21T19:32:55.862Z,15.33
2018-09-21T19:35:24.863Z,15.26
2018-09-21T19:37:54.426Z,15.22
2018-09-21T19:40:23.242Z,15.25
2018-09-21T19:42:55.124Z,15.22
2018-09-21T19:45:23.985Z,15.19
2018-09-21T19:47:53.116Z,15.19
2018-09-21T19:50:23.392Z,15.23
2018-09-21T19:52:52.761Z,15.24
2018-09-21T19:55:22.325Z,15.22
2018-09-21T19:57:51.122Z,15.24
2018-09-21T20:00:20.310Z,15.22
2018-09-21T20:02:49.413Z,15.23
2018-09-21T20:05:18.507Z,15.22
2018-09-21T20:07:47.312Z,15.18
2018-09-21T20:10:16.994Z,15.13
2018-09-21T20:12:45.851Z,15.08
2018-09-21T20:15:14.609Z,15.07
2018-09-21T20:17:43.825Z,15.02
2018-09-21T20:20:12.767Z,14.98
2018-09-21T20:22:42.050Z,15.00
2018-09-21T20:25:11.404Z,15.02
2018-09-21T20:27:40.491Z,14.99
2018-09-21T20:30:14.318Z,15.00
2018-09-21T20:32:48.136Z,14.96
2018-09-21T20:35:18.763Z,14.95
2018-09-21T20:37:47.541Z,14.95
2018-09-21T20:40:16.896Z,14.90
2018-09-21T20:42:45.817Z,14.85
2018-09-21T20:45:14.570Z,14.79
2018-09-21T20:47:43.610Z,14.74
2018-09-21T20:50:12.363Z,14.76
2018-09-21T20:52:41.731Z,14.74
2018-09-21T20:55:10.890Z,14.72
2018-09-21T20:57:40.015Z,14.69
2018-09-21T21:00:08.941Z,14.64
2018-09-21T21:02:38.082Z,14.60
2018-09-21T21:05:07.305Z,14.61
2018-09-21T21:07:36.091Z,14.62
2018-09-21T21:10:05.018Z,14.59
2018-09-21T21:12:33.878Z,14.60
2018-09-21T21:15:02.751Z,14.55
2018-09-21T21:17:31.530Z,14.55
2018-09-21T21:20:00.719Z,14.50
2018-09-21T21:22:29.790Z,14.48
2018-09-21T21:24:58.641Z,14.42
2018-09-21T21:27:27.839Z,14.38
2018-09-21T21:29:56.936Z,14.36
2018-09-21T21:32:26.084Z,14.36
2018-09-21T21:34:55.612Z,14.33
2018-09-21T21:37:24.741Z,14.32
2018-09-21T21:39:53.475Z,14.37
2018-09-21T21:42:22.551Z,14.34
2018-09-21T21:44:51.397Z,14.33
2018-09-21T21:47:20.167Z,14.24
2018-09-21T21:49:49.272Z,14.24
2018-09-21T21:52:18.598Z,14.19
2018-09-21T21:54:47.791Z,14.16
2018-09-21T21:57:16.559Z,14.08
2018-09-21T21:59:45.886Z,14.07
2018-09-21T22:02:14.738Z,14.08
2018-09-21T22:04:43.887Z,14.09
2018-09-21T22:07:13.290Z,14.06
2018-09-21T22:09:42.086Z,14.04
2018-09-21T22:12:16.202Z,14.04
2018-09-21T22:14:44.955Z,14.05
2018-09-21T22:17:13.741Z,14.03
2018-09-21T22:19:45.726Z,13.98
2018-09-21T22:22:14.937Z,13.96
2018-09-21T22:24:43.674Z,13.92
2018-09-21T22:27:12.580Z,13.90
2018-09-21T22:29:41.543Z,13.90
2018-09-21T22:32:10.594Z,13.89
2018-09-21T22:34:39.643Z,13.94
2018-09-21T22:37:14.698Z,13.86
2018-09-21T22:39:43.785Z,13.92
2018-09-21T22:42:12.674Z,13.86
2018-09-21T22:44:41.464Z,13.84
2018-09-21T22:47:10.484Z,13.87
2018-09-21T22:49:39.576Z,13.82
2018-09-21T22:52:08.397Z,13.80
2018-09-21T22:54:37.190Z,13.72
2018-09-21T22:57:05.958Z,13.72
2018-09-21T22:59:34.763Z,13.71
2018-09-21T23:02:04.645Z,13.63
2018-09-21T23:04:33.500Z,13.61
2018-09-21T23:07:02.886Z,13.64
2018-09-21T23:09:31.755Z,13.57
2018-09-21T23:12:00.819Z,13.54
2018-09-21T23:14:29.641Z,13.53
2018-09-21T23:16:58.422Z,13.48
2018-09-21T23:19:27.241Z,13.40
2018-09-21T23:21:56.135Z,13.40
2018-09-21T23:24:25.145Z,13.37
2018-09-21T23:26:54.805Z,13.33
2018-09-21T23:29:23.636Z,13.33
2018-09-21T23:31:52.759Z,13.34
2018-09-21T23:34:21.647Z,13.35
2018-09-21T23:36:50.524Z,13.37
2018-09-21T23:39:19.282Z,13.39
2018-09-21T23:41:48.035Z,13.39
2018-09-21T23:44:17.363Z,13.44
2018-09-21T23:46:46.082Z,13.42
2018-09-21T23:49:14.838Z,13.48
2018-09-21T23:51:43.655Z,13.53
2018-09-21T23:54:12.522Z,13.52
2018-09-21T23:56:41.277Z,13.48
2018-09-21T23:59:10.039Z,13.47
